createdAt,value
2023-05-02T04:00:30.038Z,12.31
2023-05-02T04:05:29.961Z,12.47
2023-05-02T04:10:29.905Z,12.47
2023-05-02T04:15:36.899Z,12.58
2023-05-02T04:20:29.803Z,12.61
2023-05-02T04:25:29.747Z,12.52
2023-05-02T04:30:29.692Z,12.51
2023-05-02T04:35:29.753Z,12.56
2023-05-02T04:40:29.578Z,12.60
2023-05-02T04:45:29.534Z,12.61
2023-05-02T04:50:29.479Z,12.66
2023-05-02T04:55:29.440Z,12.54
2023-05-02T05:00:29.363Z,12.49
2023-05-02T05:05:29.338Z,12.55
2023-05-02T05:10:29.270Z,12.55
2023-05-02T05:15:29.232Z,12.46
2023-05-02T05:20:29.153Z,12.46
2023-05-02T05:25:29.104Z,12.47
2023-05-02T05:30:29.045Z,12.43
2023-05-02T05:35:28.996Z,12.42
2023-05-02T05:40:28.932Z,12.35
2023-05-02T05:45:28.878Z,12.40
2023-05-02T05:50:28.865Z,12.49
2023-05-02T05:55:28.791Z,12.35
2023-05-02T06:00:28.735Z,12.34
2023-05-02T06:05:28.673Z,12.50
2023-05-02T06:10:28.635Z,12.52
2023-05-02T06:15:28.583Z,12.40
2023-05-02T06:20:28.556Z,12.35
2023-05-02T06:25:28.454Z,12.38
2023-05-02T06:30:28.428Z,12.38
2023-05-02T06:35:28.372Z,12.10
2023-05-02T06:40:28.284Z,12.17
2023-05-02T06:45:28.234Z,12.26
2023-05-02T06:50:28.180Z,12.12
2023-05-02T06:55:28.421Z,11.88
2023-05-02T07:00:28.068Z,11.90
2023-05-02T07:05:28.008Z,12.08
2023-05-02T07:10:27.981Z,11.99
2023-05-02T07:15:27.954Z,12.18
2023-05-02T07:20:27.848Z,12.47
2023-05-02T07:25:27.802Z,12.73
2023-05-02T07:30:27.744Z,13.36
2023-05-02T07:35:27.732Z,13.51
2023-05-02T07:40:27.641Z,13.58
2023-05-02T07:45:27.579Z,13.48
2023-05-02T07:50:27.534Z,13.41
2023-05-02T07:55:27.497Z,13.30
2023-05-02T08:00:27.429Z,13.62
2023-05-02T08:05:27.364Z,13.51
2023-05-02T08:10:27.311Z,13.11
2023-05-02T08:15:27.277Z,12.84
2023-05-02T08:20:27.228Z,12.54
2023-05-02T08:25:27.148Z,12.38
2023-05-02T08:30:27.089Z,11.99
2023-05-02T08:35:27.062Z,11.92
2023-05-02T08:40:38.266Z,12.10
2023-05-02T08:45:27.932Z,12.56
2023-05-02T08:50:26.868Z,12.51
2023-05-02T08:55:26.891Z,12.49
2023-05-02T09:00:26.763Z,12.44
2023-05-02T09:05:26.724Z,12.45
2023-05-02T09:10:26.652Z,12.63
2023-05-02T09:15:26.618Z,13.02
2023-05-02T09:20:26.658Z,13.46
2023-05-02T09:25:26.486Z,13.49
2023-05-02T09:30:26.432Z,13.40
2023-05-02T09:35:26.455Z,13.31
2023-05-02T09:40:26.350Z,13.50
2023-05-02T09:45:26.273Z,13.24
2023-05-02T09:50:26.213Z,12.55
2023-05-02T09:55:26.299Z,12.86
2023-05-02T10:00:26.101Z,13.28
2023-05-02T10:05:26.053Z,14.06
2023-05-02T10:10:25.995Z,14.49
2023-05-02T10:15:25.955Z,13.96
2023-05-02T10:20:26.942Z,14.79
2023-05-02T10:25:25.826Z,14.84
2023-05-02T10:30:25.767Z,15.24
2023-05-02T10:35:25.784Z,15.56
2023-05-02T10:40:25.659Z,15.95
2023-05-02T10:45:25.600Z,16.30
2023-05-02T10:50:26.063Z,14.80
2023-05-02T10:55:25.522Z,14.73
2023-05-02T11:00:25.435Z,14.05
2023-05-02T11:05:25.384Z,13.53
2023-05-02T11:10:25.325Z,13.84
2023-05-02T11:15:25.292Z,15.31
2023-05-02T11:20:25.217Z,15.38
2023-05-02T11:25:25.158Z,14.67
2023-05-02T11:30:25.103Z,14.64
2023-05-02T11:35:25.087Z,15.80
2023-05-02T11:40:25.002Z,16.19
2023-05-02T11:45:24.942Z,15.56
2023-05-02T11:50:24.894Z,14.79
2023-05-02T11:55:24.853Z,14.60
2023-05-02T12:00:24.782Z,13.92
2023-05-02T12:05:24.759Z,13.83
2023-05-02T12:10:24.663Z,14.13
2023-05-02T12:15:24.643Z,14.47
2023-05-02T12:20:24.556Z,15.11
2023-05-02T12:25:24.507Z,15.71
2023-05-02T12:30:24.504Z,15.75
2023-05-02T12:35:24.441Z,15.46
2023-05-02T12:40:24.340Z,15.39
2023-05-02T12:45:24.278Z,15.42
2023-05-02T12:50:24.229Z,16.33
2023-05-02T12:55:24.224Z,15.39
2023-05-02T13:00:24.114Z,16.27
2023-05-02T13:05:24.067Z,16.30
2023-05-02T13:10:24.006Z,16.01
2023-05-02T13:15:24.032Z,16.94
2023-05-02T13:20:23.906Z,16.73
2023-05-02T13:25:23.837Z,16.02
2023-05-02T13:30:23.786Z,15.09
2023-05-02T13:35:23.743Z,16.59
2023-05-02T13:40:23.672Z,15.59
2023-05-02T13:45:23.616Z,15.06
2023-05-02T13:50:23.562Z,15.60
2023-05-02T13:55:23.543Z,15.25
2023-05-02T14:00:23.455Z,14.82
2023-05-02T14:05:23.398Z,15.61
2023-05-02T14:10:23.347Z,15.65
2023-05-02T14:15:23.331Z,15.37
2023-05-02T14:20:23.236Z,16.23
2023-05-02T14:25:23.177Z,16.20
2023-05-02T14:30:23.128Z,15.95
2023-05-02T14:35:23.087Z,15.65
2023-05-02T14:40:23.034Z,16.07
2023-05-02T14:45:22.961Z,16.46
2023-05-02T14:50:22.916Z,15.76
2023-05-02T14:55:22.877Z,15.71
2023-05-02T15:00:22.816Z,15.47
2023-05-02T15:05:22.790Z,15.32
2023-05-02T15:10:22.691Z,15.00
2023-05-02T15:15:22.661Z,15.52
2023-05-02T15:20:22.606Z,15.94
2023-05-02T15:25:22.528Z,16.17
2023-05-02T15:30:23.531Z,15.93
2023-05-02T15:35:22.439Z,15.63
2023-05-02T15:40:22.368Z,15.81
2023-05-02T15:45:22.305Z,15.87
2023-05-02T15:50:22.251Z,16.05
2023-05-02T15:55:22.228Z,16.23
2023-05-02T16:00:22.137Z,16.00
2023-05-02T16:05:22.101Z,15.69
2023-05-02T16:10:22.013Z,15.47
2023-05-02T16:15:22.017Z,14.95
2023-05-02T16:20:21.916Z,14.89
2023-05-02T16:25:21.860Z,14.81
2023-05-02T16:30:21.798Z,14.82
2023-05-02T16:35:21.775Z,15.16
2023-05-02T16:40:21.695Z,15.51
2023-05-02T16:45:21.632Z,15.69
2023-05-02T16:50:21.590Z,15.07
2023-05-02T16:55:21.571Z,14.95
2023-05-02T17:00:21.462Z,14.70
2023-05-02T17:05:21.420Z,14.70
2023-05-02T17:10:21.366Z,14.57
2023-05-02T17:15:21.318Z,14.24
2023-05-02T17:20:21.246Z,14.00
2023-05-02T17:25:21.192Z,14.13
2023-05-02T17:30:21.124Z,14.10
2023-05-02T17:35:21.117Z,13.98
2023-05-02T17:40:21.029Z,13.97
2023-05-02T17:45:20.983Z,13.72
2023-05-02T17:50:20.924Z,13.82
2023-05-02T17:55:20.917Z,13.77
2023-05-02T18:00:20.828Z,13.65
2023-05-02T18:05:20.752Z,13.59
2023-05-02T18:10:20.714Z,13.52
2023-05-02T18:15:20.686Z,13.44
2023-05-02T18:20:20.601Z,13.33
2023-05-02T18:25:20.572Z,13.33
2023-05-02T18:30:20.499Z,13.34
2023-05-02T18:35:20.448Z,13.20
2023-05-02T18:40:20.393Z,12.95
2023-05-02T18:45:20.328Z,12.69
2023-05-02T18:50:20.261Z,12.45
2023-05-02T18:55:20.615Z,12.47
2023-05-02T19:00:20.274Z,12.30
2023-05-02T19:05:20.102Z,12.14
2023-05-02T19:10:20.065Z,12.09
2023-05-02T19:15:20.051Z,11.96
2023-05-02T19:20:19.970Z,11.85
2023-05-02T19:25:19.889Z,11.69
2023-05-02T19:30:19.857Z,11.73
2023-05-02T19:35:19.822Z,11.70
2023-05-02T19:40:19.725Z,11.55
2023-05-02T19:45:19.685Z,11.56
2023-05-02T19:50:19.647Z,11.32
2023-05-02T19:55:19.582Z,11.36
2023-05-02T20:00:19.521Z,11.27
2023-05-02T20:05:19.468Z,11.13
2023-05-02T20:10:19.404Z,11.06
2023-05-02T20:15:19.404Z,10.91
2023-05-02T20:20:19.320Z,10.87
2023-05-02T20:25:19.235Z,10.87
2023-05-02T20:30:19.192Z,10.88
2023-05-02T20:35:19.156Z,10.77
2023-05-02T20:40:19.082Z,10.62
2023-05-02T20:45:19.034Z,10.52
2023-05-02T20:50:18.985Z,10.43
2023-05-02T20:55:18.954Z,10.48
2023-05-02T21:00:18.864Z,10.38
2023-05-02T21:05:18.820Z,10.31
2023-05-02T21:10:18.776Z,10.29
2023-05-02T21:15:18.720Z,10.23
2023-05-02T21:20:18.666Z,10.12
2023-05-02T21:25:18.605Z,9.99
2023-05-02T21:30:18.535Z,9.91
2023-05-02T21:35:18.510Z,9.89
2023-05-02T21:40:18.450Z,9.79
2023-05-02T21:45:18.372Z,9.69
2023-05-02T21:50:18.330Z,9.69
2023-05-02T21:55:18.289Z,9.61
2023-05-02T22:00:18.208Z,9.56
2023-05-02T22:05:18.192Z,9.49
2023-05-02T22:10:18.128Z,9.46
2023-05-02T22:15:18.072Z,9.31
2023-05-02T22:20:18.002Z,9.28
2023-05-02T22:25:17.945Z,8.94
2023-05-02T22:30:17.880Z,8.94
2023-05-02T22:35:17.862Z,8.70
2023-05-02T22:40:17.787Z,8.55
2023-05-02T22:45:17.731Z,8.48
2023-05-02T22:50:17.681Z,8.57
2023-05-02T22:55:17.672Z,8.55
2023-05-02T23:00:17.602Z,8.48
2023-05-02T23:05:17.522Z,8.40
2023-05-02T23:10:17.457Z,8.37
2023-05-02T23:15:17.421Z,8.34
2023-05-02T23:20:17.354Z,8.34
2023-05-02T23:25:17.316Z,8.22
